Time;durP1;ratioP1;P1;durP2;ratioP2;P2;SDS_P1;SDS_P2;PMS_P1;PMS_P2;Temp;Humidity;BMP_temperature;BMP_pressure;BME280_temperature;BME280_humidity;BME280_pressure;Samples;Min_cycle;Max_cycle;Signal;HPM_P1;HPM_P2
2023/07/27 00:00:25;;;;;;;0.15;0.15;;;;;;;13.66;74.27;97299.53;5068798;28;20115;-72
2023/07/27 00:02:53;;;;;;;0.13;0.13;;;;;;;13.63;74.15;97305.31;5068875;28;20068;-72
2023/07/27 00:05:22;;;;;;;0.10;0.10;;;;;;;13.60;74.03;97299.34;5068653;28;20555;-73
2023/07/27 00:07:50;;;;;;;0.10;0.10;;;;;;;13.60;74.16;97301.22;5069362;28;20087;-72
2023/07/27 00:10:17;;;;;;;0.20;0.20;;;;;;;13.61;74.07;97302.88;5067777;28;20116;-73
2023/07/27 00:12:45;;;;;;;0.10;0.10;;;;;;;13.58;74.24;97300.66;5069020;28;20071;-74
2023/07/27 00:15:13;;;;;;;0.10;0.10;;;;;;;13.47;74.76;97302.19;5070101;28;20044;-72
2023/07/27 00:17:41;;;;;;;0.10;0.10;;;;;;;13.52;74.62;97296.16;5070203;28;20051;-72
2023/07/27 00:20:09;;;;;;;0.10;0.10;;;;;;;13.57;74.21;97299.81;5072706;28;20054;-72
2023/07/27 00:22:38;;;;;;;0.20;0.20;;;;;;;13.71;73.80;97303.19;5070088;28;20059;-72
2023/07/27 00:25:07;;;;;;;0.10;0.10;;;;;;;13.62;74.07;97298.31;5070943;28;20123;-72
2023/07/27 00:27:34;;;;;;;0.10;0.10;;;;;;;13.51;74.41;97300.69;5069449;28;20558;-72
2023/07/27 00:30:02;;;;;;;0.10;0.10;;;;;;;13.46;74.64;97303.22;5070280;28;20083;-72
2023/07/27 00:32:30;;;;;;;0.43;0.43;;;;;;;13.45;74.50;97306.94;5073667;28;20921;-72
2023/07/27 00:34:57;;;;;;;0.30;0.30;;;;;;;13.45;74.80;97298.91;5070961;28;20495;-72
2023/07/27 00:37:26;;;;;;;0.10;0.10;;;;;;;13.30;75.08;97301.06;5073437;28;20045;-72
2023/07/27 00:39:55;;;;;;;0.20;0.20;;;;;;;13.23;75.47;97289.59;5071935;28;20044;-72
2023/07/27 00:42:22;;;;;;;0.10;0.10;;;;;;;13.27;75.39;97301.53;5069429;28;20041;-72
2023/07/27 00:44:50;;;;;;;0.20;0.20;;;;;;;13.26;75.52;97291.03;5071177;28;20040;-72
2023/07/27 00:47:18;;;;;;;0.10;0.10;;;;;;;13.31;75.04;97286.63;5073560;28;20044;-71
2023/07/27 00:49:46;;;;;;;0.10;0.10;;;;;;;13.29;75.23;97294.06;5068425;28;20048;-72
2023/07/27 00:52:13;;;;;;;0.15;0.15;;;;;;;13.26;75.44;97288.34;5069837;28;20063;-71
2023/07/27 00:54:41;;;;;;;0.17;0.17;;;;;;;13.31;75.21;97292.00;5070591;28;20499;-72
2023/07/27 00:57:11;;;;;;;0.10;0.10;;;;;;;13.29;75.00;97282.56;5072776;28;20040;-72
2023/07/27 00:59:39;;;;;;;0.10;0.10;;;;;;;13.27;75.20;97285.47;5068990;28;20040;-71
2023/07/27 01:02:07;;;;;;;0.10;0.10;;;;;;;13.28;75.42;97292.47;5070176;28;20107;-71
2023/07/27 01:04:35;;;;;;;0.10;0.10;;;;;;;13.34;74.88;97291.56;5071203;28;20040;-72
2023/07/27 01:07:03;;;;;;;0.10;0.10;;;;;;;13.28;75.24;97286.28;5071551;28;20494;-72
2023/07/27 01:09:31;;;;;;;0.20;0.20;;;;;;;13.27;75.23;97285.47;5067875;28;20051;-72
2023/07/27 01:12:03;;;;;;;0.10;0.10;;;;;;;13.15;75.56;97271.13;5070250;28;20057;-72
2023/07/27 01:14:39;;;;;;;0.10;0.10;;;;;;;13.10;75.65;97268.22;5071532;28;20106;-72
2023/07/27 01:17:12;;;;;;;0.10;0.10;;;;;;;12.99;76.07;97267.06;5070025;28;20102;-72
2023/07/27 01:20:01;;;;;;;0.10;0.10;;;;;;;12.97;76.05;97269.19;5069112;28;20124;-72
2023/07/27 01:22:44;;;;;;;0.20;0.20;;;;;;;12.90;76.36;97263.03;5070066;28;20036;-72
2023/07/27 01:25:27;;;;;;;0.10;0.10;;;;;;;12.88;76.48;97268.59;5070127;28;20051;-71
2023/07/27 01:28:00;;;;;;;0.10;0.10;;;;;;;12.87;76.53;97268.84;5069301;28;20044;-72
2023/07/27 01:30:50;;;;;;;0.10;0.10;;;;;;;12.76;76.90;97272.22;5068524;28;20050;-72
2023/07/27 01:33:21;;;;;;;0.10;0.10;;;;;;;12.73;76.98;97270.78;5071601;28;20125;-72
2023/07/27 01:35:54;;;;;;;0.20;0.20;;;;;;;12.73;77.05;97273.47;5069454;28;20033;-73
2023/07/27 01:38:22;;;;;;;0.10;0.10;;;;;;;12.71;77.29;97270.16;5068860;28;20800;-73
2023/07/27 01:40:50;;;;;;;0.10;0.10;;;;;;;12.70;77.17;97275.75;5070548;28;20119;-72
2023/07/27 01:43:18;;;;;;;0.10;0.10;;;;;;;12.65;77.07;97268.38;5069032;28;20553;-72
2023/07/27 01:45:48;;;;;;;0.15;0.15;;;;;;;12.66;76.89;97264.66;5067607;28;20102;-72
2023/07/27 01:48:17;;;;;;;0.17;0.17;;;;;;;12.69;76.57;97250.00;5069270;28;20047;-71
2023/07/27 01:50:46;;;;;;;0.20;0.20;;;;;;;12.62;76.91;97257.25;5068279;28;20048;-72
2023/07/27 01:53:16;;;;;;;0.20;0.20;;;;;;;12.66;76.87;97256.63;5070067;28;20131;-72
2023/07/27 01:55:44;;;;;;;0.20;0.20;;;;;;;12.61;77.07;97251.06;5069863;28;20046;-73
2023/07/27 01:58:12;;;;;;;0.10;0.10;;;;;;;12.51;77.10;97248.06;5070337;28;20052;-72
2023/07/27 02:00:41;;;;;;;0.20;0.20;;;;;;;12.57;77.20;97262.41;5072655;28;20049;-72
2023/07/27 02:03:10;;;;;;;0.20;0.20;;;;;;;12.55;77.05;97253.81;5071571;28;20146;-72
2023/07/27 02:05:37;;;;;;;0.15;0.15;;;;;;;12.59;77.04;97258.50;5069826;28;20044;-71
2023/07/27 02:08:05;;;;;;;0.10;0.10;;;;;;;12.67;76.85;97252.06;5069664;28;20040;-72
2023/07/27 02:10:33;;;;;;;0.10;0.10;;;;;;;12.57;76.99;97252.53;5067698;28;20051;-71
2023/07/27 02:13:07;;;;;;;0.15;0.15;;;;;;;12.51;77.17;97245.38;5069567;28;20048;-71
2023/07/27 02:15:44;;;;;;;0.20;0.20;;;;;;;12.64;76.71;97239.94;5068146;28;20509;-72
2023/07/27 02:18:17;;;;;;;0.10;0.10;;;;;;;12.78;76.69;97238.78;5069878;28;20115;-72
2023/07/27 02:20:44;;;;;;;;;;;;;;;12.76;75.98;97232.88;5069046;28;20063;-72
2023/07/27 02:23:13;;;;;;;0.20;0.20;;;;;;;12.77;76.01;97226.44;5069753;28;19924;-72
2023/07/27 02:25:41;;;;;;;0.28;0.28;;;;;;;12.72;76.38;97230.81;5069262;28;20036;-72
2023/07/27 02:28:10;;;;;;;0.13;0.13;;;;;;;12.76;76.50;97229.38;5068523;28;20501;-72
2023/07/27 02:30:37;;;;;;;0.10;0.10;;;;;;;12.74;76.30;97231.44;5068945;28;20048;-72
2023/07/27 02:33:05;;;;;;;0.10;0.10;;;;;;;12.79;75.96;97229.72;5070658;28;20044;-72
2023/07/27 02:35:34;;;;;;;0.43;0.43;;;;;;;12.77;75.96;97231.00;5068885;28;20428;-72
2023/07/27 02:38:02;;;;;;;0.17;0.17;;;;;;;12.76;76.04;97229.38;5069583;28;20057;-72
2023/07/27 02:40:32;;;;;;;0.20;0.20;;;;;;;12.84;75.54;97231.78;5068568;28;20047;-72
2023/07/27 02:43:00;;;;;;;0.10;0.10;;;;;;;12.73;75.80;97235.97;5069510;28;20048;-71
2023/07/27 02:45:28;;;;;;;0.08;0.08;;;;;;;12.65;76.30;97230.06;5066832;28;20416;-72
2023/07/27 02:47:55;;;;;;;0.17;0.17;;;;;;;12.69;76.36;97233.94;5067189;28;20579;-71
2023/07/27 02:50:23;;;;;;;0.10;0.10;;;;;;;12.75;76.21;97233.91;5068608;28;20045;-72
2023/07/27 02:53:02;;;;;;;0.10;0.10;;;;;;;12.74;75.99;97226.06;5069138;28;20057;-72
2023/07/27 02:55:30;;;;;;;0.10;0.10;;;;;;;12.71;76.18;97223.81;5067689;28;20048;-72
2023/07/27 02:58:00;;;;;;;0.10;0.10;;;;;;;12.71;76.22;97227.31;5068040;28;20474;-72
2023/07/27 03:00:32;;;;;;;0.10;0.10;;;;;;;12.72;76.08;97217.44;5068354;28;20056;-72
2023/07/27 03:03:00;;;;;;;0.10;0.10;;;;;;;12.71;76.21;97230.00;5068744;28;20067;-72
2023/07/27 03:05:28;;;;;;;0.10;0.10;;;;;;;12.71;76.08;97221.97;5065434;28;20050;-72
2023/07/27 03:07:56;;;;;;;0.10;0.10;;;;;;;12.65;76.13;97230.88;5068325;28;20044;-71
2023/07/27 03:10:29;;;;;;;0.05;0.05;;;;;;;12.78;76.25;97229.94;5064912;28;20136;-72
2023/07/27 03:12:57;;;;;;;0.10;0.10;;;;;;;12.74;76.14;97226.91;5068230;28;20396;-72
2023/07/27 03:15:25;;;;;;;0.20;0.20;;;;;;;12.75;75.88;97228.53;5070109;28;20455;-72
2023/07/27 03:17:53;;;;;;;0.10;0.10;;;;;;;12.70;76.12;97231.03;5067698;28;20041;-71
2023/07/27 03:20:21;;;;;;;0.10;0.10;;;;;;;12.66;76.12;97229.84;5068484;28;20040;-71
2023/07/27 03:22:49;;;;;;;0.10;0.10;;;;;;;12.71;76.36;97221.97;5068277;28;20044;-72
2023/07/27 03:25:16;;;;;;;0.10;0.10;;;;;;;12.63;76.12;97224.09;5069656;28;20036;-72
2023/07/27 03:27:45;;;;;;;0.10;0.10;;;;;;;12.61;76.46;97226.16;5069433;28;20045;-72
2023/07/27 03:30:13;;;;;;;0.20;0.20;;;;;;;12.58;76.54;97226.59;5068616;28;20981;-72
2023/07/27 03:32:41;;;;;;;0.10;0.10;;;;;;;12.62;76.67;97223.28;5068215;28;20052;-72
2023/07/27 03:35:09;;;;;;;0.10;0.10;;;;;;;12.74;76.37;97223.41;5066522;28;20138;-72
2023/07/27 03:37:36;;;;;;;0.10;0.10;;;;;;;12.73;76.01;97222.56;5069880;28;20041;-71
2023/07/27 03:40:05;;;;;;;0.10;0.10;;;;;;;12.65;75.62;97222.84;5067889;28;20079;-71
2023/07/27 03:42:33;;;;;;;0.20;0.20;;;;;;;12.65;76.05;97217.50;5069129;28;20405;-71
2023/07/27 03:45:02;;;;;;;0.10;0.10;;;;;;;12.64;75.94;97210.50;5067477;28;20489;-71
2023/07/27 03:47:29;;;;;;;0.10;0.10;;;;;;;12.76;75.87;97207.94;5069336;28;20048;-72
2023/07/27 03:49:57;;;;;;;0.20;0.20;;;;;;;12.76;75.75;97206.09;5067261;28;20036;-72
2023/07/27 03:52:25;;;;;;;0.20;0.20;;;;;;;12.83;75.53;97211.38;5069973;28;20505;-72
2023/07/27 03:54:53;;;;;;;0.10;0.10;;;;;;;12.87;75.31;97208.03;5071513;28;20052;-72
2023/07/27 03:57:20;;;;;;;0.20;0.20;;;;;;;12.93;75.19;97210.88;5071483;28;20074;-72
2023/07/27 03:59:48;;;;;;;0.10;0.10;;;;;;;12.95;74.60;97206.94;5070068;28;20051;-71
2023/07/27 04:02:17;;;;;;;0.10;0.10;;;;;;;12.89;75.01;97197.09;5071574;28;20576;-71
2023/07/27 04:04:46;;;;;;;0.20;0.20;;;;;;;12.90;74.84;97204.09;5070284;28;20516;-71
2023/07/27 04:07:13;;;;;;;0.15;0.15;;;;;;;12.88;75.02;97208.84;5071955;28;20051;-71
2023/07/27 04:09:43;;;;;;;0.10;0.10;;;;;;;12.92;74.61;97198.53;5071844;28;20047;-71
2023/07/27 04:12:10;;;;;;;0.20;0.20;;;;;;;12.93;74.58;97197.50;5072525;28;20041;-71
2023/07/27 04:14:38;;;;;;;0.10;0.10;;;;;;;12.96;74.63;97197.06;5071135;28;20051;-71
2023/07/27 04:17:06;;;;;;;0.25;0.25;;;;;;;12.83;74.92;97197.97;5071152;28;20052;-72
2023/07/27 04:19:35;;;;;;;0.10;0.10;;;;;;;12.79;75.04;97202.13;5068696;28;20045;-72
2023/07/27 04:22:03;;;;;;;0.10;0.10;;;;;;;12.75;75.25;97190.22;5071371;28;20098;-71
2023/07/27 04:24:31;;;;;;;0.10;0.10;;;;;;;12.79;75.22;97196.78;5071024;28;20071;-72
2023/07/27 04:26:59;;;;;;;0.10;0.10;;;;;;;12.78;75.03;97195.94;5072813;28;20324;-72
2023/07/27 04:29:27;;;;;;;0.32;0.32;;;;;;;12.84;75.37;97199.63;5070837;28;20469;-72
2023/07/27 04:31:54;;;;;;;0.10;0.10;;;;;;;12.80;75.24;97193.88;5071278;28;20143;-73
2023/07/27 04:34:22;;;;;;;0.10;0.10;;;;;;;12.89;75.09;97194.41;5070828;28;20041;-72
2023/07/27 04:36:51;;;;;;;0.15;0.15;;;;;;;12.86;75.17;97187.66;5071369;28;20049;-73
2023/07/27 04:39:19;;;;;;;0.10;0.10;;;;;;;12.90;75.13;97197.91;5071737;28;20040;-73
2023/07/27 04:41:47;;;;;;;0.10;0.10;;;;;;;12.94;75.07;97199.94;5069646;28;20041;-73
2023/07/27 04:44:14;;;;;;;0.13;0.13;;;;;;;12.99;74.72;97199.28;5087117;28;20055;-73
2023/07/27 04:46:42;;;;;;;0.10;0.10;;;;;;;13.02;74.72;97201.53;5072913;28;20044;-73
2023/07/27 04:49:10;;;;;;;0.13;0.13;;;;;;;13.00;74.61;97193.69;5071260;28;20097;-71
2023/07/27 04:51:38;;;;;;;0.10;0.10;;;;;;;12.99;74.49;97197.41;5072523;28;20040;-73
2023/07/27 04:54:07;;;;;;;0.17;0.17;;;;;;;13.04;74.82;97200.28;5070036;28;20148;-73
2023/07/27 04:56:34;;;;;;;0.25;0.25;;;;;;;13.04;74.57;97186.88;5072103;28;20520;-71
2023/07/27 04:59:02;;;;;;;0.20;0.20;;;;;;;13.06;74.42;97190.16;5070553;28;20551;-71
2023/07/27 05:01:30;;;;;;;0.10;0.10;;;;;;;13.11;74.20;97181.44;5073176;28;20124;-71
2023/07/27 05:03:58;;;;;;;0.10;0.10;;;;;;;13.23;73.92;97174.34;5069256;28;20420;-71
2023/07/27 05:06:26;;;;;;;0.10;0.10;;;;;;;13.27;73.76;97172.06;5074149;28;20048;-71
2023/07/27 05:08:53;;;;;;;0.20;0.20;;;;;;;13.30;73.71;97175.09;5073769;28;20055;-70
2023/07/27 05:11:22;;;;;;;0.10;0.10;;;;;;;13.31;73.37;97173.25;5072138;28;20059;-73
2023/07/27 05:13:51;;;;;;;0.10;0.10;;;;;;;13.29;73.70;97170.00;5071355;28;20044;-71
2023/07/27 05:16:18;;;;;;;0.10;0.10;;;;;;;13.25;73.08;97164.25;5072264;28;20123;-71
2023/07/27 05:18:46;;;;;;;0.10;0.10;;;;;;;13.19;73.01;97165.09;5070068;28;20048;-71
2023/07/27 05:21:14;;;;;;;0.10;0.10;;;;;;;13.22;73.06;97176.22;5072714;28;20044;-71
2023/07/27 05:23:41;;;;;;;0.10;0.10;;;;;;;13.25;72.46;97163.41;5070403;28;20045;-71
2023/07/27 05:26:09;;;;;;;0.10;0.10;;;;;;;13.23;72.77;97177.84;5071667;28;20127;-74
2023/07/27 05:28:38;;;;;;;0.20;0.20;;;;;;;13.30;72.51;97172.41;5071599;28;20040;-74
2023/07/27 05:31:05;;;;;;;0.10;0.10;;;;;;;13.29;72.42;97173.44;5070819;28;20051;-71
2023/07/27 05:33:33;;;;;;;0.20;0.20;;;;;;;13.27;72.63;97172.06;5070155;28;20120;-72
2023/07/27 05:36:01;;;;;;;0.20;0.20;;;;;;;13.25;72.39;97166.91;5071091;28;20044;-74
2023/07/27 05:38:29;;;;;;;0.22;0.22;;;;;;;13.28;72.81;97162.97;5070442;28;20461;-71
2023/07/27 05:40:59;;;;;;;0.10;0.10;;;;;;;13.36;72.19;97168.88;5070883;28;20058;-71
2023/07/27 05:43:27;;;;;;;0.10;0.10;;;;;;;13.42;72.28;97159.09;5070237;28;20055;-72
2023/07/27 05:45:57;;;;;;;0.13;0.13;;;;;;;13.51;71.96;97166.63;5070605;28;20560;-71
2023/07/27 05:48:25;;;;;;;0.17;0.17;;;;;;;13.55;72.00;97164.31;5070782;28;20040;-71
2023/07/27 05:50:53;;;;;;;0.10;0.10;;;;;;;13.61;71.70;97152.69;5068812;28;20086;-72
2023/07/27 05:53:21;;;;;;;0.17;0.17;;;;;;;13.66;71.34;97150.16;5071710;28;20083;-72
2023/07/27 05:55:49;;;;;;;0.10;0.10;;;;;;;13.65;71.49;97153.06;5069472;28;20059;-71
2023/07/27 05:58:17;;;;;;;0.22;0.22;;;;;;;13.68;71.73;97161.50;5070696;28;20414;-72
2023/07/27 06:01:01;;;;;;;0.10;0.10;;;;;;;13.65;71.69;97150.38;5070517;28;20040;-72
2023/07/27 06:03:29;;;;;;;0.10;0.10;;;;;;;13.72;71.61;97156.47;5069708;28;20041;-72
2023/07/27 06:05:57;;;;;;;0.20;0.20;;;;;;;13.71;71.65;97152.16;5069039;28;20066;-72
2023/07/27 06:08:24;;;;;;;0.20;0.20;;;;;;;13.71;71.86;97152.97;5070531;28;20045;-72
2023/07/27 06:11:00;;;;;;;0.25;0.25;;;;;;;13.75;71.73;97148.81;5067555;28;20489;-72
2023/07/27 06:13:29;;;;;;;0.20;0.20;;;;;;;13.78;71.56;97153.72;5069956;28;20451;-72
2023/07/27 06:15:57;;;;;;;0.10;0.10;;;;;;;13.76;71.43;97141.56;5068755;28;20074;-71
2023/07/27 06:18:26;;;;;;;0.10;0.10;;;;;;;13.79;71.65;97146.50;5070347;28;20048;-72
2023/07/27 06:20:55;;;;;;;0.20;0.20;;;;;;;13.87;71.37;97140.81;5070216;28;20040;-72
2023/07/27 06:23:23;;;;;;;0.10;0.10;;;;;;;13.88;71.41;97137.91;5070359;28;20058;-72
2023/07/27 06:25:51;;;;;;;0.10;0.10;;;;;;;13.90;71.48;97141.19;5068553;28;20505;-72
2023/07/27 06:28:18;;;;;;;0.10;0.10;;;;;;;13.94;71.32;97141.53;5068595;28;20064;-72
2023/07/27 06:30:46;;;;;;;0.10;0.10;;;;;;;13.88;71.37;97137.09;5069322;28;20051;-72
2023/07/27 06:33:14;;;;;;;0.10;0.10;;;;;;;13.98;71.49;97142.75;5070399;28;20040;-72
2023/07/27 06:35:43;;;;;;;0.10;0.10;;;;;;;14.10;71.06;97146.28;5068590;28;20129;-72
2023/07/27 06:38:11;;;;;;;0.10;0.10;;;;;;;14.25;70.45;97127.88;5069660;28;20047;-71
2023/07/27 06:40:39;;;;;;;0.20;0.20;;;;;;;14.42;70.31;97136.16;5067408;28;20130;-72
2023/07/27 06:43:07;;;;;;;0.20;0.20;;;;;;;14.56;69.62;97128.69;5069618;28;20048;-72
2023/07/27 06:45:35;;;;;;;0.10;0.10;;;;;;;14.65;69.64;97141.53;5066322;28;20033;-72
2023/07/27 06:48:03;;;;;;;0.10;0.10;;;;;;;14.80;69.12;97124.97;5068982;28;20048;-71
2023/07/27 06:50:31;;;;;;;0.20;0.20;;;;;;;14.88;68.62;97124.63;5068791;28;20067;-72
2023/07/27 06:53:00;;;;;;;0.10;0.10;;;;;;;15.00;68.23;97127.31;5069971;28;20455;-72
2023/07/27 06:55:28;;;;;;;0.15;0.15;;;;;;;15.14;68.83;97115.28;5068386;28;20048;-72
2023/07/27 06:57:56;;;;;;;0.10;0.10;;;;;;;15.21;68.13;97115.97;5068978;28;20051;-72
2023/07/27 07:00:24;;;;;;;0.10;0.10;;;;;;;15.28;67.70;97119.34;5069170;28;20054;-72
2023/07/27 07:02:51;;;;;;;0.13;0.13;;;;;;;15.33;67.19;97114.09;5069166;28;20104;-72
2023/07/27 07:05:20;;;;;;;0.10;0.10;;;;;;;15.40;67.36;97116.63;5096253;22;20045;-73
2023/07/27 07:07:48;;;;;;;0.08;0.08;;;;;;;15.46;67.08;97104.94;5068621;28;20067;-73
2023/07/27 07:10:18;;;;;;;0.03;0.03;;;;;;;15.52;67.02;97113.91;5067508;28;20051;-73
2023/07/27 07:12:46;;;;;;;0.10;0.10;;;;;;;15.53;66.59;97108.31;5070235;28;20052;-73
2023/07/27 07:15:13;;;;;;;0.10;0.10;;;;;;;15.54;66.49;97115.34;5068131;28;20050;-73
2023/07/27 07:17:41;;;;;;;0.13;0.13;;;;;;;15.58;66.45;97121.06;5070496;28;20037;-73
2023/07/27 07:20:10;;;;;;;0.10;0.10;;;;;;;15.67;66.21;97114.28;5059040;28;20110;-71
2023/07/27 07:22:38;;;;;;;0.00;0.00;;;;;;;15.77;65.85;97111.78;5068943;28;20051;-72
2023/07/27 07:25:06;;;;;;;0.05;0.05;;;;;;;15.86;64.90;97112.22;5068721;28;20052;-72
2023/07/27 07:27:35;;;;;;;0.10;0.10;;;;;;;15.94;64.58;97115.34;5067827;28;20044;-72
2023/07/27 07:30:04;;;;;;;0.10;0.10;;;;;;;16.06;64.19;97107.22;5067158;28;20045;-72
2023/07/27 07:32:33;;;;;;;0.08;0.08;;;;;;;16.10;63.85;97109.16;5065848;28;20041;-72
2023/07/27 07:35:01;;;;;;;0.10;0.10;;;;;;;16.26;63.94;97107.59;5067454;28;20059;-72
2023/07/27 07:37:28;;;;;;;0.40;0.40;;;;;;;16.40;63.45;97103.50;5068822;28;20119;-72
2023/07/27 07:39:56;;;;;;;0.10;0.10;;;;;;;16.48;62.97;97105.81;5057541;28;20044;-72
2023/07/27 07:42:24;;;;;;;0.10;0.10;;;;;;;16.62;62.90;97102.81;5069080;28;20500;-72
2023/07/27 07:44:53;;;;;;;0.10;0.10;;;;;;;16.75;62.42;97094.41;5068180;28;20048;-72
2023/07/27 07:47:20;;;;;;;0.08;0.08;;;;;;;16.73;61.89;97083.03;5068802;28;20033;-72
2023/07/27 07:49:48;;;;;;;0.22;0.22;;;;;;;16.75;62.20;97089.81;5067042;28;20486;-73
2023/07/27 07:52:16;;;;;;;0.10;0.10;;;;;;;16.78;62.16;97089.34;5068376;28;20036;-73
2023/07/27 07:54:43;;;;;;;0.10;0.10;;;;;;;16.82;61.88;97086.94;5066956;28;20045;-72
2023/07/27 07:57:11;;;;;;;0.40;0.40;;;;;;;16.80;62.23;97083.72;5065606;28;20405;-72
2023/07/27 07:59:39;;;;;;;0.10;0.10;;;;;;;16.81;62.37;97086.16;5059584;28;20497;-73
2023/07/27 08:02:08;;;;;;;0.10;0.10;;;;;;;16.93;61.90;97083.34;5069088;28;20050;-72
2023/07/27 08:04:35;;;;;;;0.10;0.10;;;;;;;17.09;62.20;97089.78;5069619;28;20115;-72
2023/07/27 08:07:03;;;;;;;0.10;0.10;;;;;;;17.36;61.63;97089.88;5064983;28;20056;-72
2023/07/27 08:09:31;;;;;;;0.10;0.10;;;;;;;17.50;60.71;97080.34;5066759;28;20037;-72
2023/07/27 08:11:59;;;;;;;0.10;0.10;;;;;;;17.64;60.32;97081.63;5068365;28;20536;-72
2023/07/27 08:14:26;;;;;;;0.10;0.10;;;;;;;17.66;57.22;97071.38;5067736;28;20049;-72
2023/07/27 08:16:54;;;;;;;0.10;0.10;;;;;;;17.54;56.93;97065.28;5068579;28;20044;-72
2023/07/27 08:19:23;;;;;;;0.10;0.10;;;;;;;17.50;57.86;97074.94;5069775;28;20057;-72
2023/07/27 08:21:51;;;;;;;0.10;0.10;;;;;;;17.49;57.75;97073.31;5069480;28;20047;-72
2023/07/27 08:24:18;;;;;;;0.20;0.20;;;;;;;17.51;57.30;97076.59;5068422;28;20047;-72
2023/07/27 08:26:49;;;;;;;0.40;0.40;;;;;;;17.37;57.57;97075.31;5068197;28;20444;-72
2023/07/27 08:29:16;;;;;;;0.38;0.38;;;;;;;17.30;58.33;97069.31;5067286;28;20396;-72
2023/07/27 08:31:44;;;;;;;0.10;0.10;;;;;;;17.31;58.47;97042.06;5068548;28;20048;-72
2023/07/27 08:34:12;;;;;;;0.10;0.10;;;;;;;17.31;58.56;97063.66;5067016;28;20051;-72
2023/07/27 08:36:41;;;;;;;0.15;0.15;;;;;;;17.30;58.30;97053.13;5068433;28;20126;-72
2023/07/27 08:39:09;;;;;;;0.25;0.25;;;;;;;17.31;58.40;97054.75;5069077;28;20257;-73
2023/07/27 08:41:36;;;;;;;0.10;0.10;;;;;;;17.36;58.28;97052.91;5071021;28;20047;-72
2023/07/27 08:44:04;;;;;;;0.10;0.10;;;;;;;17.43;58.50;97058.13;5061998;28;20048;-72
2023/07/27 08:46:32;;;;;;;0.10;0.10;;;;;;;17.41;58.34;97055.69;5071797;28;20493;-72
2023/07/27 08:49:01;;;;;;;0.10;0.10;;;;;;;17.52;58.51;97049.34;5068706;28;20052;-72
2023/07/27 08:51:31;;;;;;;0.10;0.10;;;;;;;17.56;58.17;97061.25;5071725;28;20059;-72
2023/07/27 08:54:00;;;;;;;0.10;0.10;;;;;;;17.55;58.59;97053.41;5070035;28;20123;-72
2023/07/27 08:56:28;;;;;;;0.10;0.10;;;;;;;17.59;58.28;97054.53;5068517;28;20036;-72
2023/07/27 08:58:55;;;;;;;0.17;0.17;;;;;;;17.58;58.29;97055.59;5070235;28;20127;-72
2023/07/27 09:01:24;;;;;;;0.10;0.10;;;;;;;17.61;57.85;97055.94;5061996;28;20083;-72
2023/07/27 09:03:51;;;;;;;0.10;0.10;;;;;;;17.68;58.12;97049.53;5068433;28;20578;-72
2023/07/27 09:06:36;;;;;;;0.10;0.10;;;;;;;17.74;57.91;97038.56;5071288;28;20045;-71
2023/07/27 09:09:14;;;;;;;0.10;0.10;;;;;;;17.77;58.10;97038.03;5067424;28;20044;-71
2023/07/27 09:11:43;;;;;;;0.10;0.10;;;;;;;17.82;57.90;97030.00;5070731;28;20046;-72
2023/07/27 09:14:13;;;;;;;0.20;0.20;;;;;;;17.68;57.84;97027.94;5071632;28;20420;-72
2023/07/27 09:16:41;;;;;;;0.10;0.10;;;;;;;17.69;59.20;97034.97;5067108;28;20044;-72
2023/07/27 09:19:11;;;;;;;0.10;0.10;;;;;;;17.78;59.17;97028.88;5066911;28;20045;-72
2023/07/27 09:21:44;;;;;;;0.10;0.10;;;;;;;17.81;59.03;97025.66;5071058;28;20040;-72
2023/07/27 09:24:14;;;;;;;0.10;0.10;;;;;;;17.90;58.75;97026.84;5069588;28;20047;-72
2023/07/27 09:26:46;;;;;;;0.10;0.10;;;;;;;17.98;58.78;97026.38;5071389;28;20036;-72
2023/07/27 09:29:15;;;;;;;0.05;0.05;;;;;;;17.93;58.76;97031.75;5066457;28;20045;-73
2023/07/27 09:31:46;;;;;;;0.10;0.10;;;;;;;18.00;57.89;97025.31;5069714;28;20461;-73
2023/07/27 09:34:14;;;;;;;0.10;0.10;;;;;;;17.94;58.42;97022.56;5071491;28;20071;-73
2023/07/27 09:36:42;;;;;;;0.10;0.10;;;;;;;18.07;58.16;97015.91;5070881;28;20045;-73
2023/07/27 09:39:10;;;;;;;0.10;0.10;;;;;;;18.12;57.22;97005.16;5061909;28;20123;-73
2023/07/27 09:41:39;;;;;;;0.10;0.10;;;;;;;18.16;57.23;97013.59;5067080;28;20194;-73
2023/07/27 09:44:07;;;;;;;0.10;0.10;;;;;;;18.03;57.39;97006.72;5068879;28;20055;-73
2023/07/27 09:46:34;;;;;;;0.10;0.10;;;;;;;18.07;57.31;96999.69;5069210;28;20123;-73
2023/07/27 09:49:02;;;;;;;0.10;0.10;;;;;;;18.11;57.58;96990.03;5069762;28;20056;-73
2023/07/27 09:51:30;;;;;;;0.10;0.10;;;;;;;18.18;57.40;96989.81;5063051;28;20045;-73
2023/07/27 09:54:00;;;;;;;0.10;0.10;;;;;;;18.23;57.11;96987.16;5070965;28;20123;-73
2023/07/27 09:56:28;;;;;;;0.10;0.10;;;;;;;18.27;57.45;96999.09;5070448;28;20075;-73
2023/07/27 09:58:58;;;;;;;0.03;0.03;;;;;;;18.23;57.82;96993.38;5070005;28;20037;-73
2023/07/27 10:01:26;;;;;;;0.30;0.30;;;;;;;18.22;57.71;96996.31;5068861;28;20495;-73
2023/07/27 10:03:57;;;;;;;0.15;0.15;;;;;;;18.20;58.14;96993.06;5069725;28;20516;-73
2023/07/27 10:06:26;;;;;;;0.20;0.20;;;;;;;18.12;57.61;96988.13;5071146;28;20052;-72
2023/07/27 10:08:54;;;;;;;0.10;0.10;;;;;;;17.97;58.52;96989.63;5071254;28;20051;-73
2023/07/27 10:11:29;;;;;;;0.10;0.10;;;;;;;17.90;58.78;96980.94;5068225;28;20047;-72
2023/07/27 10:14:16;;;;;;;0.30;0.30;;;;;;;17.81;59.95;96974.38;5070392;28;20122;-73
2023/07/27 10:16:57;;;;;;;0.13;0.13;;;;;;;17.82;59.64;96976.00;5069963;28;20119;-73
2023/07/27 10:19:25;;;;;;;0.13;0.13;;;;;;;17.84;59.90;96973.06;5070111;28;20127;-73
2023/07/27 10:21:53;;;;;;;0.00;0.00;;;;;;;17.79;60.39;96957.59;5068680;28;20040;-73
2023/07/27 10:24:23;;;;;;;0.10;0.10;;;;;;;17.86;60.52;96968.19;5070644;28;20044;-73
2023/07/27 10:26:51;;;;;;;0.00;0.00;;;;;;;17.93;60.92;96958.81;5070094;28;20048;-73
2023/07/27 10:29:22;;;;;;;0.10;0.10;;;;;;;18.04;61.57;96958.91;5069394;28;20041;-73
2023/07/27 10:32:01;;;;;;;0.00;0.00;;;;;;;18.01;60.83;96962.13;5069820;28;20123;-73
2023/07/27 10:34:29;;;;;;;0.10;0.10;;;;;;;17.98;61.38;96961.56;5070264;28;20386;-73
2023/07/27 10:37:07;;;;;;;0.10;0.10;;;;;;;17.92;61.09;96967.19;5069446;28;20045;-72
2023/07/27 10:39:35;;;;;;;0.10;0.10;;;;;;;17.76;60.88;96951.91;5070509;28;20052;-72
2023/07/27 10:42:06;;;;;;;0.10;0.10;;;;;;;17.71;60.86;96949.97;5068465;28;20040;-73
2023/07/27 10:44:43;;;;;;;0.10;0.10;;;;;;;17.62;61.17;96951.47;5069118;28;20036;-73
2023/07/27 10:47:12;;;;;;;0.10;0.10;;;;;;;17.69;61.20;96944.00;5069920;28;20060;-73
2023/07/27 10:49:40;;;;;;;0.10;0.10;;;;;;;17.67;60.57;96948.84;5067999;28;20045;-71
2023/07/27 10:52:09;;;;;;;0.10;0.10;;;;;;;17.66;60.60;96949.09;5067109;28;20078;-72
2023/07/27 10:54:38;;;;;;;0.10;0.10;;;;;;;17.54;62.38;96936.56;5070316;28;20043;-70
2023/07/27 10:57:07;;;;;;;0.10;0.10;;;;;;;17.52;64.02;96937.88;5070150;28;20055;-70
2023/07/27 10:59:38;;;;;;;0.10;0.10;;;;;;;17.44;63.36;96931.03;5070784;28;20044;-73
2023/07/27 11:02:11;;;;;;;0.05;0.05;;;;;;;17.39;65.35;96944.50;5068025;28;20045;-73
2023/07/27 11:04:40;;;;;;;0.10;0.10;;;;;;;17.34;64.78;96943.66;5068985;28;20385;-73
2023/07/27 11:07:10;;;;;;;0.10;0.10;;;;;;;17.38;66.33;96942.88;5069477;28;20040;-73
2023/07/27 11:09:45;;;;;;;0.10;0.10;;;;;;;17.29;67.09;96948.97;5058832;28;20048;-73
2023/07/27 11:12:12;;;;;;;0.00;0.00;;;;;;;16.93;68.42;96934.25;5067821;28;20137;-73
2023/07/27 11:14:40;;;;;;;0.28;0.28;;;;;;;16.85;69.43;96927.41;5067330;28;20119;-72
2023/07/27 11:17:09;;;;;;;0.10;0.10;;;;;;;16.69;70.95;96912.94;5067416;28;20623;-73
2023/07/27 11:19:37;;;;;;;0.10;0.10;;;;;;;16.66;71.54;96915.31;5067306;28;20120;-72
2023/07/27 11:22:05;;;;;;;0.20;0.20;;;;;;;16.62;71.51;96912.28;5059814;28;20079;-70
2023/07/27 11:24:34;;;;;;;0.03;0.03;;;;;;;16.59;71.16;96911.97;5060763;28;20053;-70
2023/07/27 11:27:02;;;;;;;0.10;0.10;;;;;;;16.55;73.13;96903.56;5067361;28;20052;-72
2023/07/27 11:29:32;;;;;;;0.13;0.13;;;;;;;16.58;73.68;96896.88;5069269;28;20059;-73
2023/07/27 11:32:00;;;;;;;0.10;0.10;;;;;;;16.62;73.92;96895.31;5067939;28;20078;-73
2023/07/27 11:34:30;;;;;;;0.10;0.10;;;;;;;16.55;73.60;96890.09;5069308;28;20125;-73
2023/07/27 11:36:58;;;;;;;0.10;0.10;;;;;;;16.45;72.94;96885.38;5067308;28;20051;-72
2023/07/27 11:39:27;;;;;;;0.10;0.10;;;;;;;16.41;73.31;96876.16;5069782;28;20037;-72
2023/07/27 11:41:55;;;;;;;0.08;0.08;;;;;;;16.39;74.09;96877.50;5067777;28;20040;-72